sensor_id;sensor_type;location;lat;lon;timestamp;temperature;humidity
28725;DHT22;43472;48.980;9.646;2022-12-05T00:05:40;5.70;99.90
28725;DHT22;43472;48.980;9.646;2022-12-05T00:10:43;5.60;99.90
28725;DHT22;43472;48.980;9.646;2022-12-05T00:20:48;5.40;99.90
28725;DHT22;43472;48.980;9.646;2022-12-05T00:25:50;5.50;99.90
28725;DHT22;43472;48.980;9.646;2022-12-05T00:30:52;5.50;99.90
28725;DHT22;43472;48.980;9.646;2022-12-05T00:40:56;5.50;99.90
28725;DHT22;43472;48.980;9.646;2022-12-05T00:46:05;5.40;99.90
28725;DHT22;43472;48.980;9.646;2022-12-05T00:56:18;5.60;99.90
28725;DHT22;43472;48.980;9.646;2022-12-05T01:01:27;5.60;99.90
28725;DHT22;43472;48.980;9.646;2022-12-05T01:06:30;5.50;99.90
28725;DHT22;43472;48.980;9.646;2022-12-05T01:11:32;5.70;99.90
28725;DHT22;43472;48.980;9.646;2022-12-05T01:16:43;5.60;99.90
28725;DHT22;43472;48.980;9.646;2022-12-05T01:21:46;5.50;99.90
28725;DHT22;43472;48.980;9.646;2022-12-05T01:26:48;5.60;99.90
28725;DHT22;43472;48.980;9.646;2022-12-05T01:31:50;5.50;99.90
28725;DHT22;43472;48.980;9.646;2022-12-05T01:36:52;5.40;99.90
28725;DHT22;43472;48.980;9.646;2022-12-05T01:41:54;5.10;99.90
28725;DHT22;43472;48.980;9.646;2022-12-05T01:46:56;5.20;99.90
28725;DHT22;43472;48.980;9.646;2022-12-05T01:52:01;5.20;99.90
28725;DHT22;43472;48.980;9.646;2022-12-05T01:57:07;5.30;99.90
28725;DHT22;43472;48.980;9.646;2022-12-05T02:02:11;4.90;99.90
28725;DHT22;43472;48.980;9.646;2022-12-05T02:07:13;5.00;99.90
28725;DHT22;43472;48.980;9.646;2022-12-05T02:43:56;5.50;99.90
28725;DHT22;43472;48.980;9.646;2022-12-05T02:48:59;5.50;99.90
28725;DHT22;43472;48.980;9.646;2022-12-05T02:54:07;5.00;99.90
28725;DHT22;43472;48.980;9.646;2022-12-05T03:04:14;5.40;99.90
28725;DHT22;43472;48.980;9.646;2022-12-05T03:09:23;5.40;99.90
28725;DHT22;43472;48.980;9.646;2022-12-05T03:14:29;5.50;99.90
28725;DHT22;43472;48.980;9.646;2022-12-05T03:19:40;5.20;99.90
28725;DHT22;43472;48.980;9.646;2022-12-05T03:29:57;5.10;99.90
28725;DHT22;43472;48.980;9.646;2022-12-05T03:35:08;5.30;99.90
28725;DHT22;43472;48.980;9.646;2022-12-05T03:45:46;5.40;99.90
28725;DHT22;43472;48.980;9.646;2022-12-05T03:50:50;5.50;99.90
28725;DHT22;43472;48.980;9.646;2022-12-05T03:56:02;5.50;99.90
28725;DHT22;43472;48.980;9.646;2022-12-05T04:01:07;5.50;99.90
28725;DHT22;43472;48.980;9.646;2022-12-05T04:06:29;5.50;99.90
28725;DHT22;43472;48.980;9.646;2022-12-05T04:11:34;5.50;99.90
28725;DHT22;43472;48.980;9.646;2022-12-05T04:17:04;5.70;99.90
28725;DHT22;43472;48.980;9.646;2022-12-05T04:22:06;5.60;99.90
28725;DHT22;43472;48.980;9.646;2022-12-05T04:27:22;5.70;99.90
28725;DHT22;43472;48.980;9.646;2022-12-05T04:32:36;5.70;99.90
28725;DHT22;43472;48.980;9.646;2022-12-05T04:37:42;5.60;99.90
28725;DHT22;43472;48.980;9.646;2022-12-05T04:42:46;5.70;99.90
28725;DHT22;43472;48.980;9.646;2022-12-05T04:47:54;5.70;99.90
28725;DHT22;43472;48.980;9.646;2022-12-05T04:52:58;5.60;99.90
28725;DHT22;43472;48.980;9.646;2022-12-05T04:58:22;5.60;99.90
28725;DHT22;43472;48.980;9.646;2022-12-05T05:03:39;5.60;99.90
28725;DHT22;43472;48.980;9.646;2022-12-05T05:08:51;5.60;99.90
28725;DHT22;43472;48.980;9.646;2022-12-05T05:13:53;5.60;99.90
28725;DHT22;43472;48.980;9.646;2022-12-05T05:29:01;5.40;99.90
28725;DHT22;43472;48.980;9.646;2022-12-05T05:34:03;5.40;99.90
28725;DHT22;43472;48.980;9.646;2022-12-05T05:39:12;5.60;99.90
28725;DHT22;43472;48.980;9.646;2022-12-05T05:49:16;5.60;99.90
28725;DHT22;43472;48.980;9.646;2022-12-05T05:54:18;5.60;99.90
28725;DHT22;43472;48.980;9.646;2022-12-05T06:04:22;5.40;99.90
28725;DHT22;43472;48.980;9.646;2022-12-05T06:09:24;5.50;99.90
28725;DHT22;43472;48.980;9.646;2022-12-05T06:19:28;5.60;99.90
28725;DHT22;43472;48.980;9.646;2022-12-05T06:24:29;5.80;99.90
28725;DHT22;43472;48.980;9.646;2022-12-05T06:29:32;5.80;99.90
28725;DHT22;43472;48.980;9.646;2022-12-05T06:34:35;5.70;99.90
28725;DHT22;43472;48.980;9.646;2022-12-05T06:39:37;5.70;99.90
28725;DHT22;43472;48.980;9.646;2022-12-05T06:44:39;5.70;99.90
28725;DHT22;43472;48.980;9.646;2022-12-05T07:04:49;5.50;99.90
28725;DHT22;43472;48.980;9.646;2022-12-05T07:09:51;5.80;99.90
28725;DHT22;43472;48.980;9.646;2022-12-05T07:19:56;5.70;99.90
28725;DHT22;43472;48.980;9.646;2022-12-05T07:24:58;5.80;99.90
28725;DHT22;43472;48.980;9.646;2022-12-05T07:30:00;5.70;99.90
28725;DHT22;43472;48.980;9.646;2022-12-05T07:35:02;5.90;99.90
28725;DHT22;43472;48.980;9.646;2022-12-05T07:40:06;6.00;99.90
28725;DHT22;43472;48.980;9.646;2022-12-05T07:45:09;5.90;99.90
28725;DHT22;43472;48.980;9.646;2022-12-05T07:50:11;5.90;99.90
28725;DHT22;43472;48.980;9.646;2022-12-05T07:55:12;5.70;99.90
28725;DHT22;43472;48.980;9.646;2022-12-05T08:00:15;5.70;99.90
28725;DHT22;43472;48.980;9.646;2022-12-05T08:05:17;5.90;99.90
28725;DHT22;43472;48.980;9.646;2022-12-05T08:20:23;6.10;99.90
28725;DHT22;43472;48.980;9.646;2022-12-05T08:25:25;6.10;99.90
28725;DHT22;43472;48.980;9.646;2022-12-05T08:30:26;6.00;99.90
28725;DHT22;43472;48.980;9.646;2022-12-05T08:35:28;6.00;99.90
28725;DHT22;43472;48.980;9.646;2022-12-05T08:40:30;6.20;99.90
28725;DHT22;43472;48.980;9.646;2022-12-05T08:45:32;6.10;99.90
28725;DHT22;43472;48.980;9.646;2022-12-05T08:55:37;6.10;99.90
28725;DHT22;43472;48.980;9.646;2022-12-05T09:00:39;6.30;99.90
28725;DHT22;43472;48.980;9.646;2022-12-05T09:10:43;6.50;99.90
28725;DHT22;43472;48.980;9.646;2022-12-05T09:15:45;4.00;99.90
28725;DHT22;43472;48.980;9.646;2022-12-05T09:20:47;6.50;99.90
28725;DHT22;43472;48.980;9.646;2022-12-05T09:25:52;6.60;99.90
28725;DHT22;43472;48.980;9.646;2022-12-05T09:30:58;6.60;99.90
28725;DHT22;43472;48.980;9.646;2022-12-05T09:36:05;6.60;99.90
28725;DHT22;43472;48.980;9.646;2022-12-05T09:46:44;6.80;99.90
28725;DHT22;43472;48.980;9.646;2022-12-05T09:51:47;6.70;99.90
28725;DHT22;43472;48.980;9.646;2022-12-05T09:56:56;6.80;99.90
28725;DHT22;43472;48.980;9.646;2022-12-05T10:07:20;6.80;99.90
28725;DHT22;43472;48.980;9.646;2022-12-05T10:17:45;6.90;99.90
28725;DHT22;43472;48.980;9.646;2022-12-05T10:22:53;6.80;99.90
28725;DHT22;43472;48.980;9.646;2022-12-05T10:27:59;6.80;99.90
28725;DHT22;43472;48.980;9.646;2022-12-05T10:33:12;6.90;99.90
28725;DHT22;43472;48.980;9.646;2022-12-05T10:38:28;6.90;99.90
28725;DHT22;43472;48.980;9.646;2022-12-05T10:43:31;7.00;99.90
28725;DHT22;43472;48.980;9.646;2022-12-05T10:48:36;7.10;99.90
28725;DHT22;43472;48.980;9.646;2022-12-05T10:58:56;7.10;99.90
28725;DHT22;43472;48.980;9.646;2022-12-05T11:04:08;7.00;99.90
28725;DHT22;43472;48.980;9.646;2022-12-05T11:09:19;7.30;99.90
28725;DHT22;43472;48.980;9.646;2022-12-05T11:14:24;7.00;99.90
28725;DHT22;43472;48.980;9.646;2022-12-05T11:19:34;7.30;99.90
28725;DHT22;43472;48.980;9.646;2022-12-05T11:24:37;7.20;99.90
28725;DHT22;43472;48.980;9.646;2022-12-05T11:29:39;7.20;99.90
28725;DHT22;43472;48.980;9.646;2022-12-05T11:40:00;7.30;99.90
28725;DHT22;43472;48.980;9.646;2022-12-05T11:45:30;7.40;99.90
28725;DHT22;43472;48.980;9.646;2022-12-05T11:56:15;7.30;99.90
28725;DHT22;43472;48.980;9.646;2022-12-05T12:33:45;7.40;99.90
28725;DHT22;43472;48.980;9.646;2022-12-05T12:55:22;7.50;99.90
28725;DHT22;43472;48.980;9.646;2022-12-05T13:00:54;7.50;99.90
28725;DHT22;43472;48.980;9.646;2022-12-05T13:06:17;7.30;99.90
28725;DHT22;43472;48.980;9.646;2022-12-05T13:11:22;7.20;99.90
28725;DHT22;43472;48.980;9.646;2022-12-05T13:16:28;4.90;99.90
28725;DHT22;43472;48.980;9.646;2022-12-05T13:21:32;7.60;99.90
28725;DHT22;43472;48.980;9.646;2022-12-05T13:26:33;7.60;99.90
28725;DHT22;43472;48.980;9.646;2022-12-05T13:31:41;7.60;99.90
28725;DHT22;43472;48.980;9.646;2022-12-05T13:36:44;7.60;99.90
28725;DHT22;43472;48.980;9.646;2022-12-05T13:42:05;8.90;99.90
28725;DHT22;43472;48.980;9.646;2022-12-05T13:48:32;7.40;99.90
28725;DHT22;43472;48.980;9.646;2022-12-05T13:53:05;7.60;99.90
28725;DHT22;43472;48.980;9.646;2022-12-05T14:13:42;8.50;99.90
28725;DHT22;43472;48.980;9.646;2022-12-05T14:18:57;7.40;99.90
28725;DHT22;43472;48.980;9.646;2022-12-05T14:24:34;7.50;99.90
28725;DHT22;43472;48.980;9.646;2022-12-05T14:50:51;7.50;99.90
28725;DHT22;43472;48.980;9.646;2022-12-05T15:01:12;8.30;99.90
28725;DHT22;43472;48.980;9.646;2022-12-05T15:11:20;7.40;99.90
28725;DHT22;43472;48.980;9.646;2022-12-05T15:16:30;7.40;99.90
28725;DHT22;43472;48.980;9.646;2022-12-05T15:22:00;7.30;99.90
28725;DHT22;43472;48.980;9.646;2022-12-05T15:27:04;7.40;99.90
28725;DHT22;43472;48.980;9.646;2022-12-05T15:42:25;7.20;99.90
28725;DHT22;43472;48.980;9.646;2022-12-05T15:47:30;7.20;99.90
28725;DHT22;43472;48.980;9.646;2022-12-05T15:52:37;7.80;99.90
28725;DHT22;43472;48.980;9.646;2022-12-05T15:58:31;7.20;99.90
28725;DHT22;43472;48.980;9.646;2022-12-05T16:03:22;7.20;99.90
28725;DHT22;43472;48.980;9.646;2022-12-05T16:08:28;7.10;99.90
28725;DHT22;43472;48.980;9.646;2022-12-05T16:13:55;6.90;99.90
28725;DHT22;43472;48.980;9.646;2022-12-05T16:19:21;6.80;99.90
28725;DHT22;43472;48.980;9.646;2022-12-05T16:24:28;6.70;99.90
28725;DHT22;43472;48.980;9.646;2022-12-05T16:29:32;6.80;99.90
28725;DHT22;43472;48.980;9.646;2022-12-05T16:34:35;6.90;99.90
28725;DHT22;43472;48.980;9.646;2022-12-05T16:49:47;6.90;99.90
28725;DHT22;43472;48.980;9.646;2022-12-05T16:54:49;7.00;99.90
28725;DHT22;43472;48.980;9.646;2022-12-05T16:59:51;6.80;99.90
28725;DHT22;43472;48.980;9.646;2022-12-05T17:04:52;6.80;99.90
28725;DHT22;43472;48.980;9.646;2022-12-05T17:14:56;6.70;99.90
28725;DHT22;43472;48.980;9.646;2022-12-05T17:19:59;6.70;99.90
28725;DHT22;43472;48.980;9.646;2022-12-05T17:25:00;6.70;99.90
28725;DHT22;43472;48.980;9.646;2022-12-05T17:30:03;6.80;99.90
28725;DHT22;43472;48.980;9.646;2022-12-05T17:35:22;6.70;99.90
28725;DHT22;43472;48.980;9.646;2022-12-05T17:40:26;6.70;99.90
28725;DHT22;43472;48.980;9.646;2022-12-05T17:45:29;6.70;99.90
28725;DHT22;43472;48.980;9.646;2022-12-05T17:50:31;6.70;99.90
28725;DHT22;43472;48.980;9.646;2022-12-05T17:55:33;6.70;99.90
28725;DHT22;43472;48.980;9.646;2022-12-05T18:00:35;6.60;99.90
28725;DHT22;43472;48.980;9.646;2022-12-05T18:05:37;6.50;99.90
28725;DHT22;43472;48.980;9.646;2022-12-05T18:10:43;6.50;99.90
28725;DHT22;43472;48.980;9.646;2022-12-05T18:15:47;6.30;99.90
28725;DHT22;43472;48.980;9.646;2022-12-05T18:20:49;6.30;99.90
28725;DHT22;43472;48.980;9.646;2022-12-05T18:25:58;6.30;99.90
28725;DHT22;43472;48.980;9.646;2022-12-05T18:31:11;6.40;99.90
28725;DHT22;43472;48.980;9.646;2022-12-05T18:36:17;6.50;99.90
28725;DHT22;43472;48.980;9.646;2022-12-05T18:41:20;6.50;99.90
28725;DHT22;43472;48.980;9.646;2022-12-05T18:46:23;6.20;99.90
28725;DHT22;43472;48.980;9.646;2022-12-05T18:51:25;6.00;99.90
28725;DHT22;43472;48.980;9.646;2022-12-05T18:56:31;6.30;99.90
28725;DHT22;43472;48.980;9.646;2022-12-05T19:01:36;6.30;99.90
28725;DHT22;43472;48.980;9.646;2022-12-05T19:06:40;6.50;99.90
28725;DHT22;43472;48.980;9.646;2022-12-05T19:11:45;6.50;99.90
28725;DHT22;43472;48.980;9.646;2022-12-05T19:16:50;6.40;99.90
28725;DHT22;43472;48.980;9.646;2022-12-05T19:22:00;6.50;99.90
28725;DHT22;43472;48.980;9.646;2022-12-05T19:27:02;6.40;99.90
28725;DHT22;43472;48.980;9.646;2022-12-05T19:32:04;6.40;99.90
28725;DHT22;43472;48.980;9.646;2022-12-05T19:37:06;6.50;99.90
28725;DHT22;43472;48.980;9.646;2022-12-05T19:42:08;6.50;99.90
28725;DHT22;43472;48.980;9.646;2022-12-05T19:47:10;6.50;99.90
28725;DHT22;43472;48.980;9.646;2022-12-05T19:52:11;6.50;99.90
28725;DHT22;43472;48.980;9.646;2022-12-05T19:57:18;6.30;99.90
28725;DHT22;43472;48.980;9.646;2022-12-05T20:02:20;6.40;99.90
28725;DHT22;43472;48.980;9.646;2022-12-05T20:17:26;6.20;99.90
28725;DHT22;43472;48.980;9.646;2022-12-05T20:22:28;6.20;99.90
28725;DHT22;43472;48.980;9.646;2022-12-05T20:27:31;6.20;99.90
28725;DHT22;43472;48.980;9.646;2022-12-05T20:32:34;6.30;99.90
28725;DHT22;43472;48.980;9.646;2022-12-05T20:37:36;6.30;99.90
28725;DHT22;43472;48.980;9.646;2022-12-05T20:42:38;6.30;99.90
28725;DHT22;43472;48.980;9.646;2022-12-05T20:47:47;6.30;99.90
28725;DHT22;43472;48.980;9.646;2022-12-05T20:57:50;6.30;99.90
28725;DHT22;43472;48.980;9.646;2022-12-05T21:02:52;6.20;99.90
28725;DHT22;43472;48.980;9.646;2022-12-05T21:07:54;6.20;99.90
28725;DHT22;43472;48.980;9.646;2022-12-05T21:12:56;6.30;99.90
28725;DHT22;43472;48.980;9.646;2022-12-05T21:17:58;6.30;99.90
28725;DHT22;43472;48.980;9.646;2022-12-05T21:23:00;6.30;99.90
28725;DHT22;43472;48.980;9.646;2022-12-05T21:33:04;6.30;99.90
28725;DHT22;43472;48.980;9.646;2022-12-05T21:38:06;6.30;99.90
28725;DHT22;43472;48.980;9.646;2022-12-05T21:43:07;6.20;99.90
28725;DHT22;43472;48.980;9.646;2022-12-05T21:48:09;6.30;99.90
28725;DHT22;43472;48.980;9.646;2022-12-05T21:53:11;6.30;99.90
28725;DHT22;43472;48.980;9.646;2022-12-05T21:58:13;6.30;99.90
28725;DHT22;43472;48.980;9.646;2022-12-05T22:03:15;6.10;99.90
28725;DHT22;43472;48.980;9.646;2022-12-05T22:08:17;5.90;99.90
28725;DHT22;43472;48.980;9.646;2022-12-05T22:18:21;5.90;99.90
28725;DHT22;43472;48.980;9.646;2022-12-05T22:23:23;6.10;99.90
28725;DHT22;43472;48.980;9.646;2022-12-05T22:33:27;6.00;99.90
28725;DHT22;43472;48.980;9.646;2022-12-05T22:38:31;5.90;99.90
28725;DHT22;43472;48.980;9.646;2022-12-05T22:43:35;5.80;99.90
28725;DHT22;43472;48.980;9.646;2022-12-05T22:48:37;5.80;99.90
28725;DHT22;43472;48.980;9.646;2022-12-05T22:58:42;5.80;99.90
28725;DHT22;43472;48.980;9.646;2022-12-05T23:03:46;5.70;99.90
28725;DHT22;43472;48.980;9.646;2022-12-05T23:08:48;5.70;99.90
28725;DHT22;43472;48.980;9.646;2022-12-05T23:19:00;5.60;99.90
28725;DHT22;43472;48.980;9.646;2022-12-05T23:24:05;5.70;99.90
28725;DHT22;43472;48.980;9.646;2022-12-05T23:29:07;5.70;99.90
28725;DHT22;43472;48.980;9.646;2022-12-05T23:34:09;5.70;99.90
28725;DHT22;43472;48.980;9.646;2022-12-05T23:39:11;5.60;99.90
28725;DHT22;43472;48.980;9.646;2022-12-05T23:54:18;5.60;99.90
28725;DHT22;43472;48.980;9.646;2022-12-05T23:59:20;5.70;99.90
